createdAt,value
2018-09-11T00:00:20.802Z,89.10
2018-09-11T00:02:49.595Z,88.90
2018-09-11T00:05:20.154Z,88.70
2018-09-11T00:07:48.851Z,89.10
2018-09-11T00:10:17.620Z,89.10
2018-09-11T00:12:46.827Z,89.10
2018-09-11T00:15:15.635Z,89.10
2018-09-11T00:17:44.194Z,89.20
2018-09-11T00:20:12.979Z,89.20
2018-09-11T00:22:41.738Z,89.70
2018-09-11T00:25:10.421Z,90.30
2018-09-11T00:27:39.225Z,89.80
2018-09-11T00:30:08.170Z,89.50
2018-09-11T00:32:36.800Z,89.70
2018-09-11T00:35:05.646Z,89.30
2018-09-11T00:37:35.069Z,88.90
2018-09-11T00:40:03.897Z,89.00
2018-09-11T00:42:33.449Z,89.50
2018-09-11T00:45:02.208Z,89.10
2018-09-11T00:47:30.983Z,89.60
2018-09-11T00:49:59.940Z,90.10
2018-09-11T00:52:28.591Z,90.00
2018-09-11T00:54:57.265Z,90.10
2018-09-11T00:57:25.937Z,90.00
2018-09-11T00:59:54.681Z,89.90
2018-09-11T01:02:24.162Z,89.90
2018-09-11T01:04:53.052Z,89.80
2018-09-11T01:07:23.355Z,90.00
2018-09-11T01:09:52.098Z,90.20
2018-09-11T01:12:21.184Z,90.30
2018-09-11T01:14:49.853Z,90.60
2018-09-11T01:17:18.497Z,90.60
2018-09-11T01:19:47.337Z,90.60
2018-09-11T01:22:16.022Z,90.80
2018-09-11T01:24:44.637Z,91.00
2018-09-11T01:27:13.412Z,91.10
2018-09-11T01:29:42.098Z,91.30
2018-09-11T01:32:10.815Z,91.40
2018-09-11T01:34:39.519Z,91.40
2018-09-11T01:37:08.133Z,91.40
2018-09-11T01:39:36.693Z,92.00
2018-09-11T01:42:05.454Z,92.60
2018-09-11T01:44:33.966Z,91.80
2018-09-11T01:47:04.773Z,91.80
2018-09-11T01:49:33.588Z,91.90
2018-09-11T01:52:02.297Z,91.90
2018-09-11T01:54:31.723Z,91.90
2018-09-11T01:57:00.415Z,91.90
2018-09-11T01:59:29.138Z,91.60
2018-09-11T02:01:57.969Z,91.60
2018-09-11T02:04:26.912Z,91.60
2018-09-11T02:06:55.994Z,91.60
2018-09-11T02:09:24.681Z,91.60
2018-09-11T02:11:55.400Z,91.60
2018-09-11T02:14:24.210Z,91.60
2018-09-11T02:16:52.994Z,91.80
2018-09-11T02:19:21.871Z,92.00
2018-09-11T02:21:50.626Z,92.20
2018-09-11T02:24:19.450Z,92.40
2018-09-11T02:26:48.297Z,92.30
2018-09-11T02:29:16.914Z,92.50
2018-09-11T02:31:45.568Z,92.60
2018-09-11T02:34:14.359Z,92.70
2018-09-11T02:36:43.143Z,92.80
2018-09-11T02:39:12.818Z,92.90
2018-09-11T02:41:41.539Z,93.00
2018-09-11T02:44:11.225Z,93.20
2018-09-11T02:46:40.141Z,93.50
2018-09-11T02:49:09.020Z,93.50
2018-09-11T02:51:37.917Z,93.00
2018-09-11T02:54:06.586Z,93.00
2018-09-11T02:56:35.315Z,92.50
2018-09-11T02:59:03.979Z,92.30
2018-09-11T03:01:32.668Z,92.20
2018-09-11T03:04:01.367Z,92.10
2018-09-11T03:06:30.035Z,92.10
2018-09-11T03:08:59.417Z,92.20
2018-09-11T03:11:28.214Z,92.30
2018-09-11T03:13:56.835Z,92.60
2018-09-11T03:16:25.496Z,92.90
2018-09-11T03:18:54.504Z,92.90
2018-09-11T03:21:23.213Z,93.10
2018-09-11T03:23:51.814Z,92.90
2018-09-11T03:26:20.550Z,92.90
2018-09-11T03:28:49.203Z,93.00
2018-09-11T03:31:17.921Z,92.90
2018-09-11T03:33:46.563Z,92.80
2018-09-11T03:36:15.196Z,93.00
2018-09-11T03:38:44.008Z,93.10
2018-09-11T03:41:12.766Z,93.10
2018-09-11T03:43:41.449Z,93.10
2018-09-11T03:46:10.098Z,93.10
2018-09-11T03:48:38.939Z,93.00
2018-09-11T03:51:07.788Z,92.90
2018-09-11T03:53:36.443Z,92.90
2018-09-11T03:57:34.446Z,92.90
2018-09-11T04:00:05.180Z,93.00
2018-09-11T04:02:33.871Z,92.90
2018-09-11T04:05:02.562Z,93.00
2018-09-11T04:07:31.326Z,93.00
2018-09-11T04:10:00.039Z,93.00
2018-09-11T04:12:28.848Z,93.40
2018-09-11T04:14:57.547Z,93.10
2018-09-11T04:17:31.406Z,93.20
2018-09-11T04:19:59.942Z,93.30
2018-09-11T04:22:28.854Z,93.30
2018-09-11T04:24:57.517Z,93.60
2018-09-11T04:27:26.211Z,93.60
2018-09-11T04:29:55.105Z,93.60
2018-09-11T04:32:23.863Z,93.60
2018-09-11T04:34:57.621Z,93.40
2018-09-11T04:37:31.220Z,93.30
2018-09-11T04:40:00.112Z,93.20
2018-09-11T04:42:28.976Z,93.20
2018-09-11T04:44:57.694Z,93.20
2018-09-11T04:47:26.358Z,93.40
2018-09-11T04:49:55.028Z,93.50
2018-09-11T04:52:23.918Z,93.30
2018-09-11T04:54:52.627Z,93.30
2018-09-11T04:57:21.345Z,92.50
2018-09-11T04:59:49.992Z,92.90
2018-09-11T05:02:18.706Z,93.00
2018-09-11T05:04:47.316Z,92.40
2018-09-11T05:07:16.066Z,92.10
2018-09-11T05:09:44.773Z,92.70
2018-09-11T05:12:13.463Z,92.50
2018-09-11T05:14:42.211Z,92.40
2018-09-11T05:17:10.838Z,92.40
2018-09-11T05:19:39.519Z,92.50
2018-09-11T05:22:08.365Z,92.60
2018-09-11T05:24:39.425Z,92.40
2018-09-11T05:27:08.021Z,92.40
2018-09-11T05:29:37.289Z,92.40
2018-09-11T05:32:05.969Z,92.30
2018-09-11T05:34:36.291Z,92.40
2018-09-11T05:37:05.110Z,92.40
2018-09-11T05:39:33.811Z,92.30
2018-09-11T05:42:02.776Z,92.20
2018-09-11T05:44:31.451Z,92.20
2018-09-11T05:47:00.245Z,92.00
2018-09-11T05:49:28.896Z,92.00
2018-09-11T05:51:58.750Z,91.90
2018-09-11T05:54:27.653Z,90.90
2018-09-11T05:56:56.338Z,91.40
2018-09-11T05:59:25.185Z,91.60
2018-09-11T06:01:54.002Z,91.30
2018-09-11T06:04:22.695Z,91.20
2018-09-11T06:06:51.395Z,91.20
2018-09-11T06:09:20.173Z,90.90
2018-09-11T06:11:48.887Z,90.80
2018-09-11T06:14:17.577Z,90.80
2018-09-11T06:16:46.320Z,90.90
2018-09-11T06:19:15.783Z,90.80
2018-09-11T06:21:44.472Z,90.90
2018-09-11T06:24:13.263Z,90.90
2018-09-11T06:26:41.963Z,90.50
2018-09-11T06:29:10.855Z,90.40
2018-09-11T06:31:39.496Z,90.10
2018-09-11T06:34:09.147Z,89.50
2018-09-11T06:36:38.215Z,89.40
2018-09-11T06:39:08.570Z,89.40
2018-09-11T06:41:37.454Z,89.50
2018-09-11T06:44:07.092Z,89.60
2018-09-11T06:46:36.064Z,89.50
2018-09-11T06:49:05.187Z,89.50
2018-09-11T06:51:33.836Z,89.50
2018-09-11T06:54:02.732Z,88.90
2018-09-11T06:56:31.534Z,89.60
2018-09-11T06:59:02.975Z,89.70
2018-09-11T07:01:31.984Z,89.40
2018-09-11T07:04:01.208Z,89.30
2018-09-11T07:06:30.167Z,89.50
2018-09-11T07:08:59.012Z,89.70
2018-09-11T07:11:27.793Z,89.80
2018-09-11T07:13:56.556Z,90.00
2018-09-11T07:16:25.255Z,89.80
2018-09-11T07:18:54.120Z,90.00
2018-09-11T07:21:23.298Z,89.80
2018-09-11T07:23:52.874Z,89.30
2018-09-11T07:26:21.840Z,89.10
2018-09-11T07:28:51.547Z,88.50
2018-09-11T07:31:20.259Z,86.90
2018-09-11T07:33:49.360Z,87.90
2018-09-11T07:37:51.847Z,87.50
2018-09-11T07:40:20.701Z,87.20
2018-09-11T07:42:49.568Z,86.40
2018-09-11T07:45:18.627Z,85.90
2018-09-11T07:47:47.492Z,85.50
2018-09-11T07:50:16.272Z,85.10
2018-09-11T07:52:45.177Z,85.20
2018-09-11T07:55:14.758Z,85.30
2018-09-11T07:57:43.570Z,80.50
2018-09-11T08:00:13.291Z,82.10
2018-09-11T08:02:43.211Z,82.00
2018-09-11T08:05:17.773Z,79.10
2018-09-11T08:07:47.355Z,80.40
2018-09-11T08:10:17.529Z,81.20
2018-09-11T08:12:49.607Z,82.10
2018-09-11T08:15:25.294Z,76.20
2018-09-11T08:17:54.046Z,75.80
2018-09-11T08:20:23.915Z,74.70
2018-09-11T08:22:53.340Z,72.70
2018-09-11T08:25:23.118Z,71.50
2018-09-11T08:27:52.670Z,72.20
2018-09-11T08:30:21.551Z,68.20
2018-09-11T08:32:50.584Z,68.80
2018-09-11T08:35:45.072Z,66.80
2018-09-11T08:39:03.469Z,66.20
2018-09-11T08:42:30.343Z,64.70
2018-09-11T08:48:36.385Z,63.00
2018-09-11T08:51:27.342Z,63.90
2018-09-11T08:54:32.900Z,64.00
2018-09-11T09:00:21.472Z,65.20
2018-09-11T09:03:29.181Z,65.10
2018-09-11T09:05:59.701Z,65.90
2018-09-11T09:08:28.927Z,65.80
2018-09-11T09:10:57.674Z,66.20
2018-09-11T09:13:30.147Z,64.10
2018-09-11T09:16:27.781Z,66.10
2018-09-11T09:18:57.231Z,66.10
2018-09-11T09:21:41.694Z,67.20
2018-09-11T09:27:12.651Z,67.40
2018-09-11T09:29:42.345Z,67.70
2018-09-11T09:32:11.497Z,68.00
2018-09-11T09:34:42.054Z,68.10
2018-09-11T09:37:11.268Z,69.40
2018-09-11T09:39:40.008Z,67.90
2018-09-11T09:42:08.760Z,67.30
2018-09-11T09:44:38.474Z,67.00
2018-09-11T09:47:07.903Z,66.60
2018-09-11T09:49:36.588Z,65.50
2018-09-11T09:52:06.485Z,64.90
2018-09-11T09:54:35.242Z,64.60
2018-09-11T09:57:04.271Z,64.00
2018-09-11T09:59:33.027Z,63.60
2018-09-11T10:02:19.618Z,62.60
2018-09-11T10:04:57.525Z,62.20
2018-09-11T10:07:26.736Z,62.10
2018-09-11T10:09:56.406Z,60.40
2018-09-11T10:12:27.374Z,59.40
2018-09-11T10:15:09.104Z,56.80
2018-09-11T10:17:48.617Z,56.20
2018-09-11T10:20:31.615Z,56.40
2018-09-11T10:23:13.415Z,55.90
2018-09-11T10:25:48.710Z,54.60
2018-09-11T10:28:17.935Z,53.30
2018-09-11T10:30:46.788Z,53.00
2018-09-11T10:33:15.599Z,52.60
2018-09-11T10:35:45.032Z,52.40
2018-09-11T10:38:13.910Z,52.20
2018-09-11T10:40:42.815Z,52.80
2018-09-11T10:43:14.544Z,52.70
2018-09-11T10:45:45.251Z,52.00
2018-09-11T10:48:16.688Z,51.80
2018-09-11T10:50:45.538Z,51.20
2018-09-11T10:53:14.279Z,50.30
2018-09-11T10:55:43.079Z,48.90
2018-09-11T10:58:13.919Z,48.60
2018-09-11T11:00:43.092Z,48.80
2018-09-11T11:03:12.215Z,49.20
2018-09-11T11:05:41.166Z,49.70
2018-09-11T11:08:10.116Z,49.60
2018-09-11T11:10:44.835Z,48.40
2018-09-11T11:13:22.925Z,47.70
2018-09-11T11:15:58.779Z,48.60
2018-09-11T11:18:27.762Z,48.00
2018-09-11T11:20:56.511Z,48.90
2018-09-11T11:23:25.716Z,49.10
2018-09-11T11:25:56.428Z,48.10
2018-09-11T11:28:25.621Z,48.00
2018-09-11T11:30:54.766Z,48.80
2018-09-11T11:33:23.766Z,50.20
2018-09-11T11:35:52.576Z,50.30
2018-09-11T11:38:21.880Z,49.30
2018-09-11T11:40:50.954Z,47.80
2018-09-11T11:43:21.269Z,47.00
2018-09-11T11:45:50.822Z,45.50
2018-09-11T11:48:21.461Z,44.60
2018-09-11T11:50:51.521Z,43.10
2018-09-11T11:53:20.625Z,42.00
2018-09-11T11:55:49.545Z,40.70
2018-09-11T11:58:18.297Z,40.20
2018-09-11T12:00:50.064Z,39.80
2018-09-11T12:03:20.342Z,39.20
2018-09-11T12:05:49.969Z,39.00
2018-09-11T12:08:18.714Z,38.60
2018-09-11T12:10:47.486Z,38.80
2018-09-11T12:13:16.207Z,39.00
2018-09-11T12:15:50.490Z,38.60
2018-09-11T12:18:21.848Z,37.50
2018-09-11T12:20:57.601Z,37.10
2018-09-11T12:23:27.324Z,37.30
2018-09-11T12:26:01.931Z,36.00
2018-09-11T12:28:30.642Z,36.60
2018-09-11T12:30:59.653Z,36.30
2018-09-11T12:33:30.641Z,35.80
2018-09-11T12:36:31.381Z,36.50
2018-09-11T12:39:16.612Z,37.10
2018-09-11T12:41:45.549Z,35.80
2018-09-11T12:44:14.396Z,36.10
2018-09-11T12:46:43.688Z,36.50
2018-09-11T12:49:12.160Z,36.10
2018-09-11T12:51:40.854Z,36.60
2018-09-11T12:54:09.634Z,36.20
2018-09-11T12:56:38.354Z,36.30
2018-09-11T12:59:08.379Z,36.60
2018-09-11T13:01:37.202Z,37.30
2018-09-11T13:04:06.138Z,36.50
2018-09-11T13:06:35.249Z,36.10
2018-09-11T13:09:05.712Z,36.20
2018-09-11T13:11:34.423Z,36.60
2018-09-11T13:14:03.268Z,36.10
2018-09-11T13:16:32.060Z,35.20
2018-09-11T13:19:01.255Z,35.30
2018-09-11T13:21:36.769Z,36.20
2018-09-11T13:24:16.406Z,35.10
2018-09-11T13:26:45.478Z,35.50
2018-09-11T13:29:14.038Z,36.40
2018-09-11T13:31:49.131Z,35.60
2018-09-11T13:34:24.221Z,34.40
2018-09-11T13:36:57.598Z,34.80
2018-09-11T13:39:26.634Z,34.90
2018-09-11T13:41:57.532Z,34.30
2018-09-11T13:44:26.230Z,35.00
2018-09-11T13:46:55.660Z,35.60
2018-09-11T13:49:25.660Z,35.70
2018-09-11T13:51:54.548Z,36.60
2018-09-11T13:54:23.256Z,36.90
2018-09-11T13:56:51.951Z,36.90
2018-09-11T13:59:20.763Z,36.90
2018-09-11T14:01:49.531Z,37.00
2018-09-11T14:04:18.359Z,37.60
2018-09-11T14:06:47.035Z,38.70
2018-09-11T14:09:16.129Z,40.50
2018-09-11T14:11:45.551Z,42.20
2018-09-11T14:14:14.278Z,42.70
2018-09-11T14:16:43.114Z,43.70
2018-09-11T14:19:11.788Z,44.40
2018-09-11T14:21:42.527Z,44.50
2018-09-11T14:24:11.097Z,45.10
2018-09-11T14:26:39.980Z,44.90
2018-09-11T14:29:08.837Z,45.00
2018-09-11T14:31:37.484Z,45.20
2018-09-11T14:34:06.212Z,45.10
2018-09-11T14:36:34.882Z,45.60
2018-09-11T14:39:04.416Z,45.40
2018-09-11T14:41:33.122Z,45.70
2018-09-11T14:44:10.249Z,46.10
2018-09-11T14:46:46.728Z,46.10
2018-09-11T14:49:15.601Z,46.70
2018-09-11T14:51:46.423Z,47.20
2018-09-11T14:54:15.265Z,47.30
2018-09-11T14:56:44.546Z,47.00
2018-09-11T14:59:16.341Z,46.60
2018-09-11T15:01:45.089Z,46.60
2018-09-11T15:04:14.461Z,47.20
2018-09-11T15:06:46.131Z,47.80
2018-09-11T15:09:15.354Z,48.00
2018-09-11T15:11:44.107Z,48.20
2018-09-11T15:14:18.956Z,48.20
2018-09-11T15:16:48.288Z,48.40
2018-09-11T15:19:17.302Z,48.50
2018-09-11T15:21:47.146Z,48.60
2018-09-11T15:24:27.644Z,48.60
2018-09-11T15:29:33.294Z,48.00
2018-09-11T15:32:04.264Z,48.40
2018-09-11T15:34:35.315Z,48.30
2018-09-11T15:37:09.710Z,48.30
2018-09-11T15:39:38.676Z,48.70
2018-09-11T15:42:11.115Z,49.00
2018-09-11T15:44:40.704Z,49.20
2018-09-11T15:47:12.491Z,49.70
2018-09-11T15:49:44.722Z,49.70
2018-09-11T15:52:13.682Z,50.10
2018-09-11T15:54:42.511Z,49.50
2018-09-11T15:57:11.461Z,50.30
2018-09-11T15:59:48.217Z,50.40
2018-09-11T16:02:25.868Z,50.50
2018-09-11T16:05:05.498Z,50.90
2018-09-11T16:10:26.164Z,51.20
2018-09-11T16:12:55.014Z,51.80
2018-09-11T16:15:23.965Z,51.90
2018-09-11T16:17:52.705Z,52.10
2018-09-11T16:20:21.581Z,52.30
2018-09-11T16:22:50.233Z,52.50
2018-09-11T16:25:19.030Z,53.40
2018-09-11T16:27:47.838Z,53.40
2018-09-11T16:30:16.714Z,53.70
2018-09-11T16:32:45.474Z,53.80
2018-09-11T16:35:14.457Z,54.30
2018-09-11T16:37:43.461Z,54.40
2018-09-11T16:40:13.965Z,54.40
2018-09-11T16:42:44.741Z,54.70
2018-09-11T16:45:13.932Z,55.00
2018-09-11T16:47:42.861Z,55.30
2018-09-11T16:50:11.827Z,55.40
2018-09-11T16:52:43.378Z,55.70
2018-09-11T16:55:12.211Z,55.90
2018-09-11T16:57:43.979Z,56.00
2018-09-11T17:00:12.776Z,56.40
2018-09-11T17:02:41.421Z,56.30
2018-09-11T17:05:10.287Z,56.60
2018-09-11T17:07:39.014Z,56.70
2018-09-11T17:10:08.215Z,56.70
2018-09-11T17:12:38.786Z,56.90
2018-09-11T17:15:08.064Z,57.10
2018-09-11T17:17:37.465Z,58.70
2018-09-11T17:20:06.630Z,59.30
2018-09-11T17:22:35.330Z,60.10
2018-09-11T17:25:04.194Z,60.90
2018-09-11T17:27:33.858Z,61.80
2018-09-11T17:30:02.736Z,61.90
2018-09-11T17:32:31.653Z,62.50
2018-09-11T17:35:00.563Z,63.00
2018-09-11T17:37:29.320Z,64.10
2018-09-11T17:39:58.185Z,65.00
2018-09-11T17:42:26.903Z,65.50
2018-09-11T17:44:55.692Z,66.10
2018-09-11T17:47:24.528Z,67.00
2018-09-11T17:49:53.355Z,67.40
2018-09-11T17:52:22.262Z,68.10
2018-09-11T17:54:50.933Z,68.50
2018-09-11T17:57:19.646Z,69.10
2018-09-11T17:59:48.394Z,69.40
2018-09-11T18:02:17.500Z,70.20
2018-09-11T18:04:46.316Z,70.80
2018-09-11T18:07:15.573Z,71.10
2018-09-11T18:09:44.407Z,71.50
2018-09-11T18:12:13.183Z,72.00
2018-09-11T18:14:41.938Z,71.70
2018-09-11T18:17:10.714Z,71.10
2018-09-11T18:19:39.704Z,71.50
2018-09-11T18:22:08.365Z,71.50
2018-09-11T18:24:37.123Z,71.40
2018-09-11T18:27:05.855Z,71.10
2018-09-11T18:29:34.858Z,71.10
2018-09-11T18:32:03.660Z,71.50
2018-09-11T18:34:33.044Z,72.00
2018-09-11T18:37:01.881Z,72.80
2018-09-11T18:39:30.842Z,73.80
2018-09-11T18:41:59.669Z,74.30
2018-09-11T18:44:28.355Z,74.50
2018-09-11T18:46:57.194Z,74.90
2018-09-11T18:49:26.002Z,75.20
2018-09-11T18:51:54.910Z,75.20
2018-09-11T18:54:23.859Z,75.20
2018-09-11T18:56:52.658Z,75.40
2018-09-11T18:59:21.411Z,75.40
2018-09-11T19:01:50.083Z,75.20
2018-09-11T19:04:21.720Z,75.30
2018-09-11T19:06:50.601Z,75.10
2018-09-11T19:09:19.465Z,74.70
2018-09-11T19:11:48.392Z,74.90
2018-09-11T19:14:21.124Z,75.20
2018-09-11T19:16:49.863Z,75.40
2018-09-11T19:19:18.449Z,75.10
2018-09-11T19:21:49.940Z,74.80
2018-09-11T19:24:18.674Z,74.20
2018-09-11T19:26:47.684Z,74.70
2018-09-11T19:29:16.511Z,74.60
2018-09-11T19:31:45.215Z,74.80
2018-09-11T19:34:14.129Z,75.10
2018-09-11T19:36:46.223Z,75.20
2018-09-11T19:39:28.863Z,75.20
2018-09-11T19:41:58.076Z,75.50
2018-09-11T19:44:31.166Z,75.70
2018-09-11T19:46:59.775Z,75.90
2018-09-11T19:49:28.788Z,76.00
2018-09-11T19:52:04.219Z,75.90
2018-09-11T19:54:38.181Z,75.80
2018-09-11T19:57:08.321Z,75.90
2018-09-11T19:59:37.504Z,75.90
2018-09-11T20:02:06.712Z,75.90
2018-09-11T20:04:35.452Z,76.60
2018-09-11T20:07:05.028Z,76.40
2018-09-11T20:09:36.469Z,76.60
2018-09-11T20:12:05.132Z,76.90
2018-09-11T20:14:34.627Z,77.70
2018-09-11T20:17:03.264Z,77.90
2018-09-11T20:19:32.482Z,78.30
2018-09-11T20:22:01.368Z,78.10
2018-09-11T20:24:30.042Z,78.40
2018-09-11T20:27:29.284Z,78.80
2018-09-11T20:29:57.956Z,78.50
2018-09-11T20:32:31.277Z,79.30
2018-09-11T20:34:59.963Z,79.80
2018-09-11T20:37:28.694Z,80.60
2018-09-11T20:39:57.459Z,81.50
2018-09-11T20:42:26.785Z,81.40
2018-09-11T20:44:55.472Z,82.10
2018-09-11T20:47:26.255Z,81.30
2018-09-11T20:49:55.058Z,81.40
2018-09-11T20:52:23.801Z,81.80
2018-09-11T20:54:53.491Z,82.50
2018-09-11T20:57:22.119Z,83.00
2018-09-11T20:59:51.335Z,83.20
2018-09-11T21:02:19.946Z,83.90
2018-09-11T21:04:48.614Z,82.30
2018-09-11T21:07:17.538Z,84.50
2018-09-11T21:09:47.206Z,84.50
2018-09-11T21:12:15.787Z,84.30
2018-09-11T21:14:44.622Z,84.40
2018-09-11T21:17:13.134Z,84.60
2018-09-11T21:19:42.012Z,84.70
2018-09-11T21:22:10.696Z,84.90
2018-09-11T21:24:42.476Z,85.20
2018-09-11T21:27:11.140Z,85.90
2018-09-11T21:29:42.870Z,85.90
2018-09-11T21:32:11.619Z,85.90
2018-09-11T21:34:40.336Z,85.60
2018-09-11T21:37:11.233Z,85.20
2018-09-11T21:39:39.935Z,85.80
2018-09-11T21:42:08.763Z,85.90
2018-09-11T21:44:37.374Z,86.50
2018-09-11T21:47:06.671Z,86.60
2018-09-11T21:49:35.379Z,86.80
2018-09-11T21:52:04.047Z,86.90
2018-09-11T21:54:32.638Z,87.00
2018-09-11T21:57:01.402Z,87.80
2018-09-11T21:59:29.943Z,86.70
2018-09-11T22:02:02.173Z,89.00
2018-09-11T22:04:31.834Z,89.60
2018-09-11T22:07:00.498Z,89.90
2018-09-11T22:09:31.003Z,89.90
2018-09-11T22:11:59.771Z,89.80
2018-09-11T22:14:28.371Z,89.90
2018-09-11T22:16:57.037Z,89.80
2018-09-11T22:19:30.365Z,89.70
2018-09-11T22:21:58.929Z,88.50
2018-09-11T22:24:27.583Z,89.50
2018-09-11T22:26:56.479Z,89.80
2018-09-11T22:29:25.341Z,89.90
2018-09-11T22:31:53.975Z,90.00
2018-09-11T22:34:24.216Z,88.40
2018-09-11T22:36:53.107Z,88.80
2018-09-11T22:39:21.885Z,88.40
2018-09-11T22:41:50.489Z,88.20
2018-09-11T22:44:19.212Z,87.30
2018-09-11T22:46:47.836Z,88.70
2018-09-11T22:49:18.681Z,88.80
2018-09-11T22:51:47.298Z,89.50
2018-09-11T22:54:16.828Z,90.10
2018-09-11T22:56:45.510Z,90.10
2018-09-11T22:59:14.191Z,90.10
2018-09-11T23:01:42.767Z,90.50
2018-09-11T23:04:11.509Z,90.20
2018-09-11T23:06:40.223Z,90.40
2018-09-11T23:09:10.550Z,90.60
2018-09-11T23:11:39.170Z,90.70
2018-09-11T23:14:09.307Z,90.80
2018-09-11T23:16:37.998Z,90.80
2018-09-11T23:19:06.647Z,90.70
2018-09-11T23:21:35.461Z,90.70
2018-09-11T23:24:04.689Z,91.10
2018-09-11T23:26:33.439Z,90.70
2018-09-11T23:29:03.895Z,90.90
2018-09-11T23:31:32.710Z,90.60
2018-09-11T23:34:01.388Z,91.00
2018-09-11T23:36:30.010Z,90.90
2018-09-11T23:38:58.770Z,91.00
2018-09-11T23:41:28.377Z,90.80
2018-09-11T23:43:57.036Z,91.00
2018-09-11T23:46:25.657Z,90.80
2018-09-11T23:48:54.249Z,90.50
2018-09-11T23:51:22.833Z,90.20
2018-09-11T23:53:51.480Z,89.90
2018-09-11T23:56:20.743Z,89.80
2018-09-11T23:58:49.827Z,89.10
